Time;durP1;ratioP1;P1;durP2;ratioP2;P2;SDS_P1;SDS_P2;PMS_P1;PMS_P2;Temp;Humidity;BMP_temperature;BMP_pressure;BME280_temperature;BME280_humidity;BME280_pressure;Samples;Min_cycle;Max_cycle;Signal;HPM_P1;HPM_P2
2023/12/27 00:00:33;;;;;;;0.90;0.40;;;11.00;45.90;;;;;;5033598;28;20705;-46
2023/12/27 00:02:58;;;;;;;1.00;0.60;;;11.00;45.80;;;;;;5033923;28;20174;-49
2023/12/27 00:05:24;;;;;;;1.00;0.63;;;11.00;46.20;;;;;;5033835;28;20578;-45
2023/12/27 00:07:51;;;;;;;2.03;0.88;;;11.00;46.10;;;;;;5033620;28;20197;-47
2023/12/27 00:10:17;;;;;;;0.90;0.50;;;10.90;46.30;;;;;;5033486;28;20198;-46
2023/12/27 00:12:43;;;;;;;1.07;0.93;;;10.90;46.00;;;;;;5033683;28;20644;-50
2023/12/27 00:15:08;;;;;;;1.00;0.73;;;10.90;46.10;;;;;;5033292;28;20209;-43
2023/12/27 00:17:34;;;;;;;7.10;1.20;;;10.90;45.90;;;;;;5033414;28;20170;-49
2023/12/27 00:20:00;;;;;;;2.07;0.70;;;10.90;46.30;;;;;;5033551;28;20755;-49
2023/12/27 00:22:26;;;;;;;0.90;0.50;;;10.80;46.10;;;;;;5033301;28;20970;-46
2023/12/27 00:24:51;;;;;;;1.00;0.47;;;10.90;46.30;;;;;;5033129;28;20193;-48
2023/12/27 00:27:17;;;;;;;0.90;0.40;;;10.80;46.30;;;;;;5033351;28;20167;-47
2023/12/27 00:29:43;;;;;;;1.73;1.07;;;10.80;46.30;;;;;;5033048;28;20197;-46
2023/12/27 00:32:11;;;;;;;2.03;1.23;;;10.90;46.20;;;;;;5033330;28;20436;-46
2023/12/27 00:34:37;;;;;;;1.27;0.80;;;10.80;46.00;;;;;;5033089;28;20727;-48
2023/12/27 00:37:03;;;;;;;0.90;0.55;;;10.90;45.90;;;;;;5033069;28;20261;-46
2023/12/27 00:39:29;;;;;;;3.50;1.98;;;11.00;45.60;;;;;;5032847;28;20527;-48
2023/12/27 00:41:55;;;;;;;1.00;0.80;;;11.10;46.10;;;;;;5033030;28;20186;-47
2023/12/27 00:44:20;;;;;;;1.10;0.60;;;11.10;45.90;;;;;;5032881;28;21025;-47
2023/12/27 00:46:46;;;;;;;1.00;0.60;;;11.10;45.70;;;;;;5032896;28;20626;-47
2023/12/27 00:49:12;;;;;;;0.90;0.40;;;11.10;45.70;;;;;;5032833;28;20241;-50
2023/12/27 00:51:38;;;;;;;0.90;0.60;;;11.10;45.70;;;;;;5032859;28;20255;-46
2023/12/27 00:54:03;;;;;;;0.87;0.43;;;11.10;45.40;;;;;;5032786;28;20408;-46
2023/12/27 00:56:29;;;;;;;16.93;0.77;;;11.20;45.40;;;;;;5032661;28;20222;-45
2023/12/27 00:58:55;;;;;;;2.23;0.97;;;11.20;45.20;;;;;;5032504;28;20256;-46
2023/12/27 01:01:21;;;;;;;0.90;0.60;;;11.20;45.30;;;;;;5032559;28;20169;-51
2023/12/27 01:03:47;;;;;;;0.90;0.50;;;11.20;45.30;;;;;;5032669;28;20212;-49
2023/12/27 01:06:13;;;;;;;0.80;0.30;;;11.10;45.40;;;;;;5032532;28;20182;-44
2023/12/27 01:08:38;;;;;;;7.20;0.90;;;11.10;45.60;;;;;;5031809;28;20179;-47
2023/12/27 01:11:05;;;;;;;0.97;0.40;;;11.10;45.40;;;;;;5032414;28;20494;-44
2023/12/27 01:13:31;;;;;;;0.80;0.32;;;11.00;45.40;;;;;;5032419;28;20416;-45
2023/12/27 01:15:59;;;;;;;0.90;0.60;;;11.00;45.40;;;;;;5032300;28;20242;-47
2023/12/27 01:18:24;;;;;;;0.90;0.40;;;11.00;45.40;;;;;;5032338;28;20162;-45
2023/12/27 01:20:50;;;;;;;0.93;0.30;;;11.00;46.10;;;;;;5032443;28;20595;-47
2023/12/27 01:23:16;;;;;;;2.90;1.37;;;11.00;45.40;;;;;;5032299;28;20257;-48
2023/12/27 01:25:41;;;;;;;1.17;0.73;;;11.10;45.50;;;;;;5032075;28;20886;-46
2023/12/27 01:28:07;;;;;;;0.97;0.50;;;11.10;45.20;;;;;;5032004;28;20182;-50
2023/12/27 01:30:33;;;;;;;1.10;0.50;;;11.10;45.00;;;;;;5032225;28;20221;-45
2023/12/27 01:32:59;;;;;;;1.00;0.60;;;11.10;45.00;;;;;;5032173;28;20169;-47
2023/12/27 01:35:26;;;;;;;0.90;0.30;;;11.10;44.80;;;;;;5032187;28;20228;-48
2023/12/27 01:37:51;;;;;;;0.90;0.40;;;11.10;44.60;;;;;;5031908;28;20235;-50
2023/12/27 01:40:17;;;;;;;1.40;0.70;;;11.10;44.50;;;;;;5031970;28;20166;-46
2023/12/27 01:42:43;;;;;;;0.90;0.47;;;11.10;44.50;;;;;;5032017;28;20664;-45
2023/12/27 01:45:09;;;;;;;0.90;0.60;;;11.10;44.40;;;;;;5032001;28;20239;-49
2023/12/27 01:47:37;;;;;;;1.65;0.80;;;11.00;44.10;;;;;;5032256;28;20182;-52
2023/12/27 01:50:04;;;;;;;0.90;0.45;;;11.00;44.20;;;;;;5031983;28;20205;-45
2023/12/27 01:52:31;;;;;;;0.80;0.30;;;10.90;44.10;;;;;;5031910;28;20166;-45
2023/12/27 01:54:57;;;;;;;0.80;0.38;;;10.90;44.00;;;;;;5031840;28;20201;-49
2023/12/27 01:57:22;;;;;;;1.20;0.60;;;10.80;43.70;;;;;;5031944;28;20680;-45
2023/12/27 01:59:49;;;;;;;0.80;0.30;;;10.70;43.70;;;;;;5031710;28;20635;-47
2023/12/27 02:02:16;;;;;;;0.90;0.50;;;10.70;43.70;;;;;;5031848;28;20170;-49
2023/12/27 02:04:42;;;;;;;0.90;0.45;;;10.70;43.90;;;;;;5031849;28;20182;-45
2023/12/27 02:07:08;;;;;;;0.80;0.40;;;10.60;43.70;;;;;;5032073;28;20545;-45
2023/12/27 02:09:34;;;;;;;1.00;0.60;;;10.50;43.60;;;;;;5031555;28;20181;-49
2023/12/27 02:12:00;;;;;;;1.30;0.60;;;10.50;43.50;;;;;;5031850;28;20216;-45
2023/12/27 02:14:26;;;;;;;0.90;0.40;;;10.40;43.60;;;;;;5031716;28;20421;-44
2023/12/27 02:16:51;;;;;;;2.90;0.97;;;10.30;43.70;;;;;;5031921;28;20323;-48
2023/12/27 02:19:21;;;;;;;0.80;0.30;;;10.30;43.70;;;;;;5032761;28;20720;-45
2023/12/27 02:21:49;;;;;;;0.90;0.32;;;10.30;43.60;;;;;;5035566;28;20185;-44
2023/12/27 02:24:18;;;;;;;0.80;0.40;;;10.30;43.60;;;;;;5035508;28;20176;-50
2023/12/27 02:26:44;;;;;;;1.52;0.65;;;10.20;43.50;;;;;;5035469;28;20217;-45
2023/12/27 02:29:09;;;;;;;0.85;0.30;;;10.10;43.40;;;;;;5035362;28;20177;-45
2023/12/27 02:31:35;;;;;;;1.00;0.60;;;10.10;43.40;;;;;;5035328;28;20590;-49
2023/12/27 02:34:01;;;;;;;1.70;0.38;;;10.10;43.30;;;;;;5035458;28;20166;-47
2023/12/27 02:36:27;;;;;;;0.80;0.40;;;10.00;42.90;;;;;;5035307;28;20277;-45
2023/12/27 02:38:52;;;;;;;1.20;0.80;;;9.90;43.30;;;;;;5035185;28;20166;-50
2023/12/27 02:41:18;;;;;;;0.80;0.40;;;9.80;43.20;;;;;;5035542;28;20184;-52
2023/12/27 02:43:44;;;;;;;0.90;0.57;;;9.80;43.20;;;;;;5035210;28;20170;-45
2023/12/27 02:46:10;;;;;;;1.30;0.87;;;9.70;43.20;;;;;;5035180;28;20751;-48
2023/12/27 02:48:35;;;;;;;1.37;1.27;;;9.70;43.50;;;;;;5034951;28;20188;-48
2023/12/27 02:51:01;;;;;;;2.90;0.60;;;9.70;43.40;;;;;;5034879;28;20452;-46
2023/12/27 02:53:27;;;;;;;1.17;0.90;;;9.70;43.20;;;;;;5035059;28;20212;-47
2023/12/27 02:55:53;;;;;;;0.83;0.40;;;9.60;43.00;;;;;;5035010;28;20197;-51
2023/12/27 02:58:19;;;;;;;0.90;0.60;;;9.50;43.00;;;;;;5035052;28;20600;-46
2023/12/27 03:00:46;;;;;;;1.00;0.63;;;9.40;42.80;;;;;;5034935;28;20205;-48
2023/12/27 03:03:14;;;;;;;0.90;0.50;;;9.30;43.00;;;;;;5034984;28;20181;-49
2023/12/27 03:05:40;;;;;;;1.00;0.88;;;9.30;43.70;;;;;;5034773;28;20193;-45
2023/12/27 03:08:06;;;;;;;0.90;0.40;;;9.10;43.00;;;;;;5034669;28;20178;-50
2023/12/27 03:10:31;;;;;;;0.90;0.50;;;9.00;43.10;;;;;;5034758;28;20198;-51
2023/12/27 03:12:57;;;;;;;0.80;0.30;;;9.00;43.40;;;;;;5034801;28;20674;-45
2023/12/27 03:15:23;;;;;;;1.20;0.77;;;8.90;43.50;;;;;;5034635;28;20667;-45
2023/12/27 03:17:49;;;;;;;1.37;1.23;;;8.80;43.40;;;;;;5034475;28;20224;-49
2023/12/27 03:20:14;;;;;;;0.93;0.63;;;8.80;43.70;;;;;;5034598;28;20660;-45
2023/12/27 03:22:40;;;;;;;0.90;0.50;;;8.80;43.70;;;;;;5035341;28;20171;-44
2023/12/27 03:25:06;;;;;;;0.80;0.30;;;8.80;43.40;;;;;;5035330;28;20211;-46
2023/12/27 03:27:32;;;;;;;0.90;0.50;;;8.80;43.60;;;;;;5035526;28;20177;-49
2023/12/27 03:29:57;;;;;;;1.00;0.73;;;8.70;43.40;;;;;;5035292;28;20262;-49
2023/12/27 03:32:24;;;;;;;0.90;0.50;;;8.60;43.40;;;;;;5034093;28;20174;-47
2023/12/27 03:34:50;;;;;;;0.88;0.40;;;8.60;43.80;;;;;;5034194;28;20181;-46
2023/12/27 03:37:16;;;;;;;0.90;0.60;;;8.50;43.60;;;;;;5034247;28;20189;-49
2023/12/27 03:39:43;;;;;;;1.00;0.60;;;8.50;43.70;;;;;;5034232;28;20275;-46
2023/12/27 03:42:10;;;;;;;1.88;0.90;;;8.50;43.70;;;;;;5034260;28;20543;-42
2023/12/27 03:44:35;;;;;;;0.80;0.38;;;8.40;43.30;;;;;;5034134;28;20189;-50
2023/12/27 03:47:01;;;;;;;0.80;0.35;;;8.40;43.40;;;;;;5034127;28;20167;-46
2023/12/27 03:49:27;;;;;;;2.07;0.70;;;8.40;43.50;;;;;;5033771;28;20207;-48
2023/12/27 03:51:53;;;;;;;0.83;0.37;;;8.40;43.50;;;;;;5033963;28;20306;-47
2023/12/27 03:54:18;;;;;;;1.13;0.97;;;8.30;43.40;;;;;;5033942;28;20170;-46
2023/12/27 03:56:45;;;;;;;1.00;0.67;;;8.30;43.50;;;;;;5033896;28;20193;-46
2023/12/27 03:59:11;;;;;;;1.00;0.80;;;8.40;43.40;;;;;;5033727;28;20176;-46
2023/12/27 04:01:37;;;;;;;0.90;0.50;;;8.40;43.40;;;;;;5033819;28;20170;-46
2023/12/27 04:04:03;;;;;;;0.90;0.55;;;8.40;43.40;;;;;;5033734;28;20770;-45
2023/12/27 04:06:28;;;;;;;0.90;0.50;;;8.40;43.30;;;;;;5033624;28;20342;-50
2023/12/27 04:08:54;;;;;;;0.90;0.60;;;8.40;43.10;;;;;;5033565;28;20691;-44
2023/12/27 04:11:20;;;;;;;1.00;0.80;;;8.40;43.00;;;;;;5033509;28;20222;-47
2023/12/27 04:13:46;;;;;;;1.93;0.97;;;8.30;43.10;;;;;;5033555;28;20512;-46
2023/12/27 04:16:12;;;;;;;1.40;1.10;;;8.30;43.20;;;;;;5033493;28;20195;-44
2023/12/27 04:18:37;;;;;;;0.95;0.73;;;8.30;43.00;;;;;;5033239;28;20181;-46
2023/12/27 04:21:04;;;;;;;1.00;0.73;;;8.30;42.60;;;;;;5033307;28;20849;-47
2023/12/27 04:23:29;;;;;;;0.90;0.60;;;8.20;42.30;;;;;;5033398;28;20173;-45
2023/12/27 04:25:56;;;;;;;0.80;0.40;;;8.10;42.40;;;;;;5033294;28;20760;-45
2023/12/27 04:28:21;;;;;;;1.25;1.15;;;8.00;42.80;;;;;;5033235;28;20502;-49
2023/12/27 04:30:48;;;;;;;0.80;0.30;;;7.90;43.20;;;;;;5033203;28;20626;-47
2023/12/27 04:33:13;;;;;;;2.17;0.80;;;8.00;43.30;;;;;;5033063;28;20917;-46
2023/12/27 04:35:39;;;;;;;0.90;0.50;;;8.00;43.20;;;;;;5033067;28;20225;-46
2023/12/27 04:38:05;;;;;;;0.90;0.40;;;8.00;43.00;;;;;;5033004;28;20177;-50
2023/12/27 04:40:31;;;;;;;1.00;0.80;;;7.90;43.20;;;;;;5033061;28;20184;-45
2023/12/27 04:42:57;;;;;;;0.87;0.40;;;8.00;43.20;;;;;;5032090;28;20205;-46
2023/12/27 04:45:22;;;;;;;1.10;0.67;;;8.00;43.10;;;;;;5032953;28;20204;-49
2023/12/27 04:47:48;;;;;;;0.80;0.30;;;7.90;42.90;;;;;;5032883;28;20945;-45
2023/12/27 04:50:14;;;;;;;1.55;0.95;;;7.90;42.80;;;;;;5032915;28;20206;-44
2023/12/27 04:52:40;;;;;;;1.03;0.70;;;7.80;42.80;;;;;;5033017;28;20177;-45
2023/12/27 04:55:06;;;;;;;1.00;0.67;;;7.70;42.80;;;;;;5032740;28;20655;-43
2023/12/27 04:57:31;;;;;;;1.20;0.63;;;7.70;43.10;;;;;;5032879;28;20182;-44
2023/12/27 04:59:57;;;;;;;2.67;1.55;;;7.70;42.80;;;;;;5032548;28;20181;-46
2023/12/27 05:02:23;;;;;;;1.20;0.97;;;7.60;42.80;;;;;;5032677;28;20204;-44
2023/12/27 05:04:49;;;;;;;1.00;0.80;;;7.60;42.90;;;;;;5032479;28;20534;-44
2023/12/27 05:07:14;;;;;;;1.30;1.13;;;7.70;43.20;;;;;;5032551;28;20171;-48
2023/12/27 05:09:40;;;;;;;1.00;0.70;;;7.70;43.20;;;;;;5032405;28;20178;-49
2023/12/27 05:12:06;;;;;;;1.00;0.77;;;7.70;43.00;;;;;;5032471;28;20166;-44
2023/12/27 05:14:32;;;;;;;0.90;0.65;;;7.70;42.90;;;;;;5032503;28;20200;-48
2023/12/27 05:16:57;;;;;;;1.00;0.88;;;7.60;42.90;;;;;;5032496;28;20265;-44
2023/12/27 05:19:23;;;;;;;1.20;0.73;;;7.60;42.80;;;;;;5032122;28;20174;-47
2023/12/27 05:21:49;;;;;;;1.00;0.70;;;7.50;42.60;;;;;;5032274;28;20272;-45
2023/12/27 05:24:15;;;;;;;1.00;0.83;;;7.50;42.80;;;;;;5032264;28;20173;-44
2023/12/27 05:26:40;;;;;;;0.90;0.50;;;7.50;43.00;;;;;;5032119;28;20205;-49
2023/12/27 05:29:06;;;;;;;0.80;0.30;;;7.50;43.10;;;;;;5032084;28;20178;-44
2023/12/27 05:31:32;;;;;;;1.73;1.10;;;7.40;42.80;;;;;;5032116;28;20206;-43
2023/12/27 05:33:57;;;;;;;1.80;1.13;;;7.30;43.00;;;;;;5032130;28;20215;-47
2023/12/27 05:36:23;;;;;;;0.90;0.60;;;7.30;43.20;;;;;;5032261;28;20247;-49
2023/12/27 05:38:49;;;;;;;0.90;0.60;;;7.30;43.30;;;;;;5031950;28;20232;-46
2023/12/27 05:41:15;;;;;;;0.90;0.40;;;7.30;43.30;;;;;;5032132;28;20174;-43
2023/12/27 05:43:40;;;;;;;1.23;0.97;;;7.20;43.00;;;;;;5032076;28;20174;-46
2023/12/27 05:46:06;;;;;;;1.83;1.73;;;7.20;43.10;;;;;;5031936;28;20268;-45
2023/12/27 05:48:32;;;;;;;1.00;0.68;;;7.20;43.60;;;;;;5031770;28;20671;-44
2023/12/27 05:50:58;;;;;;;1.10;1.00;;;7.20;43.00;;;;;;5031859;28;20201;-46
2023/12/27 05:53:23;;;;;;;0.90;0.57;;;7.20;43.00;;;;;;5032265;28;20169;-48
2023/12/27 05:55:49;;;;;;;1.03;0.90;;;7.20;42.90;;;;;;5038307;28;20201;-45
2023/12/27 05:58:15;;;;;;;1.17;0.90;;;7.20;42.90;;;;;;5038520;28;20586;-43
2023/12/27 06:00:40;;;;;;;0.90;0.60;;;7.20;42.70;;;;;;5038622;28;20163;-49
2023/12/27 06:03:06;;;;;;;1.00;0.70;;;7.10;42.70;;;;;;5038599;28;20169;-49
2023/12/27 06:05:32;;;;;;;0.90;0.47;;;7.20;42.90;;;;;;5038574;28;20240;-44
2023/12/27 06:07:58;;;;;;;0.90;0.70;;;7.10;43.00;;;;;;5038351;28;20169;-47
2023/12/27 06:10:24;;;;;;;1.13;0.97;;;7.10;42.80;;;;;;5038288;28;20510;-47
2023/12/27 06:12:49;;;;;;;1.92;1.50;;;7.10;42.70;;;;;;5038490;28;20174;-46
2023/12/27 06:15:15;;;;;;;1.55;1.45;;;7.00;42.80;;;;;;5038414;28;20194;-46
2023/12/27 06:17:42;;;;;;;0.90;0.60;;;6.90;42.60;;;;;;5038282;28;20172;-43
2023/12/27 06:20:09;;;;;;;0.90;0.70;;;6.80;42.70;;;;;;5038649;28;20181;-44
2023/12/27 06:22:34;;;;;;;1.67;1.15;;;6.80;43.00;;;;;;5038508;28;20269;-45
2023/12/27 06:25:00;;;;;;;1.43;1.30;;;6.80;43.20;;;;;;5038379;28;20284;-46
2023/12/27 06:27:26;;;;;;;1.00;0.70;;;6.80;43.00;;;;;;5038421;28;20416;-47
2023/12/27 06:29:52;;;;;;;1.57;0.80;;;6.80;43.00;;;;;;5038057;28;20567;-45
2023/12/27 06:32:17;;;;;;;1.20;0.97;;;6.80;42.80;;;;;;5038127;28;20663;-43
2023/12/27 06:34:43;;;;;;;1.00;0.60;;;6.70;42.70;;;;;;5038308;28;20843;-49
2023/12/27 06:37:09;;;;;;;0.80;0.43;;;6.70;42.70;;;;;;5038357;28;20400;-48
2023/12/27 06:39:35;;;;;;;0.90;0.60;;;6.60;43.00;;;;;;5038128;28;20599;-44
2023/12/27 06:42:02;;;;;;;1.00;0.70;;;6.60;43.00;;;;;;5038212;28;20180;-47
2023/12/27 06:44:28;;;;;;;0.90;0.60;;;6.60;43.00;;;;;;5037926;28;20193;-44
2023/12/27 06:46:54;;;;;;;1.00;0.70;;;6.60;42.90;;;;;;5038333;28;20185;-49
2023/12/27 06:49:19;;;;;;;1.10;0.53;;;6.60;43.10;;;;;;5037895;28;20261;-43
2023/12/27 06:51:45;;;;;;;1.13;0.77;;;6.50;43.20;;;;;;5038070;28;20288;-48
2023/12/27 06:54:11;;;;;;;1.10;0.90;;;6.50;43.30;;;;;;5038056;28;20173;-46
2023/12/27 06:56:39;;;;;;;1.73;1.23;;;6.60;43.20;;;;;;5038061;28;20198;-43
2023/12/27 06:59:05;;;;;;;0.80;0.30;;;6.60;43.20;;;;;;5037701;28;20178;-44
2023/12/27 07:01:31;;;;;;;1.07;0.50;;;6.50;42.90;;;;;;5038099;28;20204;-49
2023/12/27 07:03:57;;;;;;;0.90;0.40;;;6.50;43.40;;;;;;5037899;28;20396;-49
2023/12/27 07:06:22;;;;;;;1.08;0.50;;;6.50;43.40;;;;;;5034870;28;20212;-45
2023/12/27 07:08:48;;;;;;;0.90;0.50;;;6.60;43.40;;;;;;5034658;28;20178;-44
2023/12/27 07:11:20;;;;;;;0.90;0.40;;;6.50;43.40;;;;;;5034685;28;20245;-48
2023/12/27 07:13:47;;;;;;;1.08;0.93;;;6.60;43.50;;;;;;5034601;28;20703;-43
2023/12/27 07:16:13;;;;;;;0.90;0.52;;;6.60;43.40;;;;;;5034622;28;20234;-49
2023/12/27 07:18:40;;;;;;;0.80;0.35;;;6.70;43.30;;;;;;5034632;28;20256;-43
2023/12/27 07:21:06;;;;;;;1.42;0.75;;;6.70;43.00;;;;;;5034734;28;20193;-43
2023/12/27 07:23:32;;;;;;;1.40;1.20;;;6.60;42.90;;;;;;5034691;28;20227;-49
2023/12/27 07:25:59;;;;;;;3.37;1.03;;;6.60;43.10;;;;;;5034360;28;20216;-46
2023/12/27 07:28:26;;;;;;;1.23;0.57;;;6.60;42.80;;;;;;5034246;28;20181;-44
2023/12/27 07:30:52;;;;;;;0.80;0.35;;;6.50;43.10;;;;;;5034212;28;20683;-45
2023/12/27 07:33:17;;;;;;;1.10;0.60;;;6.50;43.20;;;;;;5034507;28;20189;-46
2023/12/27 07:35:45;;;;;;;2.80;0.80;;;6.50;43.40;;;;;;5034269;28;20972;-43
2023/12/27 07:38:11;;;;;;;0.90;0.40;;;6.50;43.40;;;;;;5034061;28;20400;-43
2023/12/27 07:40:37;;;;;;;0.90;0.60;;;6.60;43.30;;;;;;5034173;28;20182;-45
2023/12/27 07:43:05;;;;;;;1.00;0.70;;;6.60;43.20;;;;;;5033970;28;20503;-48
2023/12/27 07:45:31;;;;;;;0.90;0.50;;;6.70;43.20;;;;;;5034344;28;20768;-42
2023/12/27 07:47:56;;;;;;;2.70;0.50;;;6.70;43.00;;;;;;5033968;28;20213;-49
2023/12/27 07:50:22;;;;;;;1.10;0.70;;;6.80;43.00;;;;;;5034377;28;20535;-44
2023/12/27 07:52:48;;;;;;;1.30;1.07;;;6.70;43.10;;;;;;5035377;28;20171;-44
2023/12/27 07:55:14;;;;;;;1.20;0.87;;;6.70;43.20;;;;;;5035142;28;20194;-49
2023/12/27 07:57:41;;;;;;;1.75;1.15;;;6.80;43.30;;;;;;5035271;28;20974;-50
2023/12/27 08:00:09;;;;;;;0.90;0.45;;;6.90;43.40;;;;;;5034252;28;20208;-44
2023/12/27 08:02:34;;;;;;;1.47;1.13;;;7.10;43.40;;;;;;5033963;28;20417;-43
2023/12/27 08:05:00;;;;;;;1.67;1.58;;;7.30;42.90;;;;;;5033781;28;20946;-49
2023/12/27 08:07:27;;;;;;;1.30;0.97;;;7.50;43.20;;;;;;5033783;28;20654;-44
2023/12/27 08:09:52;;;;;;;1.85;1.30;;;7.70;43.00;;;;;;5033544;28;20571;-43
2023/12/27 08:12:18;;;;;;;1.40;0.67;;;7.90;42.80;;;;;;5033530;28;20636;-51
2023/12/27 08:14:44;;;;;;;1.10;0.60;;;8.00;42.60;;;;;;5033603;28;20256;-43
2023/12/27 08:17:10;;;;;;;1.40;0.80;;;8.10;42.40;;;;;;5033517;28;20647;-44
2023/12/27 08:19:35;;;;;;;1.30;1.17;;;8.00;42.30;;;;;;5033462;28;20170;-47
2023/12/27 08:22:03;;;;;;;1.20;1.00;;;8.10;42.40;;;;;;5033401;28;20177;-47
2023/12/27 08:24:29;;;;;;;0.90;0.50;;;8.20;42.40;;;;;;5033321;28;20188;-43
2023/12/27 08:26:55;;;;;;;1.10;0.95;;;8.30;42.50;;;;;;5033265;28;20205;-46
2023/12/27 08:29:20;;;;;;;1.20;0.97;;;8.40;42.60;;;;;;5033338;28;20173;-48
2023/12/27 08:31:46;;;;;;;3.43;1.23;;;8.50;42.60;;;;;;5033083;28;20209;-44
2023/12/27 08:34:12;;;;;;;1.33;0.57;;;8.70;42.80;;;;;;5033262;28;20224;-43
2023/12/27 08:36:39;;;;;;;1.42;1.30;;;8.70;42.70;;;;;;5033204;28;20248;-46
2023/12/27 08:39:05;;;;;;;1.70;0.77;;;8.80;42.70;;;;;;5033155;28;20220;-50
2023/12/27 08:41:30;;;;;;;2.17;2.07;;;9.00;42.80;;;;;;5033261;28;20204;-42
2023/12/27 08:43:56;;;;;;;1.40;0.93;;;9.10;42.80;;;;;;5033195;28;20277;-51
2023/12/27 08:46:22;;;;;;;1.00;0.73;;;9.20;42.50;;;;;;5032886;28;20638;-45
2023/12/27 08:48:48;;;;;;;1.35;0.88;;;9.20;42.50;;;;;;5032936;28;20178;-42
2023/12/27 08:51:14;;;;;;;2.20;2.00;;;9.30;42.50;;;;;;5032788;28;20252;-52
2023/12/27 08:53:40;;;;;;;1.70;1.10;;;9.40;42.40;;;;;;5032747;28;20409;-50
2023/12/27 08:56:08;;;;;;;1.10;0.80;;;9.50;42.40;;;;;;5032874;28;20428;-46
2023/12/27 08:58:34;;;;;;;2.65;1.85;;;9.60;43.00;;;;;;5032693;28;20201;-50
2023/12/27 09:01:01;;;;;;;1.23;0.80;;;9.50;42.30;;;;;;5032596;28;20287;-46
2023/12/27 09:03:27;;;;;;;2.55;1.35;;;9.60;42.30;;;;;;5032659;28;20185;-44
2023/12/27 09:05:53;;;;;;;1.00;0.70;;;9.70;42.50;;;;;;5032565;28;20202;-49
2023/12/27 09:08:19;;;;;;;1.27;1.17;;;9.80;42.30;;;;;;5032346;28;20423;-45
2023/12/27 09:10:44;;;;;;;1.67;1.20;;;10.00;42.30;;;;;;5032655;28;20208;-45
2023/12/27 09:13:10;;;;;;;1.03;0.77;;;10.10;42.40;;;;;;5032341;28;20178;-52
2023/12/27 09:15:36;;;;;;;2.00;1.63;;;10.20;42.40;;;;;;5032677;28;20285;-44
2023/12/27 09:18:02;;;;;;;1.20;0.90;;;10.40;42.50;;;;;;5032380;28;20170;-51
2023/12/27 09:20:27;;;;;;;1.73;1.37;;;10.50;42.50;;;;;;5032484;28;20180;-50
2023/12/27 09:22:53;;;;;;;7.43;1.67;;;10.60;42.30;;;;;;5032279;28;20408;-43
2023/12/27 09:25:19;;;;;;;2.33;1.67;;;10.70;43.10;;;;;;5032101;28;20318;-47
2023/12/27 09:27:46;;;;;;;1.63;1.00;;;10.80;42.30;;;;;;5032194;28;20261;-45
2023/12/27 09:30:13;;;;;;;1.90;1.27;;;10.80;42.10;;;;;;5031701;28;20194;-50
2023/12/27 09:32:40;;;;;;;2.35;0.95;;;10.90;42.20;;;;;;5032233;28;20235;-44
2023/12/27 09:35:06;;;;;;;1.27;1.17;;;11.00;42.20;;;;;;5032132;28;20192;-44
2023/12/27 09:37:32;;;;;;;2.40;1.08;;;11.10;42.00;;;;;;5032244;28;20170;-44
2023/12/27 09:39:57;;;;;;;1.20;0.70;;;11.10;41.30;;;;;;5032223;28;20184;-46
2023/12/27 09:42:23;;;;;;;4.23;1.67;;;11.20;41.30;;;;;;5031976;28;20177;-45
2023/12/27 09:44:52;;;;;;;1.63;1.40;;;11.40;41.40;;;;;;5030739;28;20201;-44
2023/12/27 09:47:18;;;;;;;2.00;1.45;;;11.70;41.50;;;;;;5032101;28;20208;-48
2023/12/27 09:49:44;;;;;;;1.58;1.05;;;12.00;40.90;;;;;;5031811;28;20197;-43
2023/12/27 09:52:11;;;;;;;1.20;1.08;;;12.20;40.10;;;;;;5031859;28;20264;-43
2023/12/27 09:54:36;;;;;;;4.38;1.75;;;12.50;39.40;;;;;;5031816;28;20193;-50
2023/12/27 09:57:04;;;;;;;5.40;1.73;;;12.70;39.10;;;;;;5032092;28;20170;-49
2023/12/27 09:59:38;;;;;;;1.30;1.17;;;12.80;38.90;;;;;;5031707;28;20223;-45
2023/12/27 10:02:07;;;;;;;1.60;1.17;;;12.80;39.00;;;;;;5031900;28;20185;-44
2023/12/27 10:04:55;;;;;;;3.00;2.63;;;12.90;38.70;;;;;;5031659;28;20174;-46
2023/12/27 10:07:23;;;;;;;4.20;1.80;;;13.00;38.70;;;;;;5032046;28;20459;-45
2023/12/27 10:09:50;;;;;;;2.88;1.52;;;13.40;37.70;;;;;;5031684;28;20189;-47
2023/12/27 10:12:16;;;;;;;3.13;1.48;;;13.70;37.60;;;;;;5031666;28;20181;-51
2023/12/27 10:14:43;;;;;;;3.15;1.70;;;14.00;37.10;;;;;;5031749;28;20174;-43
2023/12/27 10:17:09;;;;;;;1.00;0.80;;;14.30;36.30;;;;;;5031733;28;20261;-51
2023/12/27 10:19:38;;;;;;;3.03;1.67;;;14.50;35.80;;;;;;5031877;28;20253;-44
2023/12/27 10:22:04;;;;;;;1.90;1.10;;;14.70;34.90;;;;;;5030410;28;20174;-46
2023/12/27 10:24:30;;;;;;;3.60;2.97;;;14.70;34.20;;;;;;5031656;28;20178;-51
2023/12/27 10:26:59;;;;;;;3.05;2.72;;;14.70;34.00;;;;;;5031513;28;20431;-43
2023/12/27 10:29:24;;;;;;;5.20;1.98;;;14.70;34.10;;;;;;5031569;28;20178;-44
2023/12/27 10:31:50;;;;;;;2.10;1.50;;;14.60;34.50;;;;;;5031493;28;20216;-50
2023/12/27 10:34:18;;;;;;;2.03;1.50;;;14.50;35.10;;;;;;5030342;28;20172;-51
2023/12/27 10:36:43;;;;;;;1.67;1.20;;;14.40;35.30;;;;;;5031512;28;20418;-44
2023/12/27 10:39:09;;;;;;;1.30;0.60;;;14.30;35.70;;;;;;5031404;28;20206;-51
2023/12/27 10:41:37;;;;;;;1.10;0.67;;;14.20;34.90;;;;;;5033136;28;20419;-45
2023/12/27 10:44:04;;;;;;;1.55;1.15;;;14.20;35.70;;;;;;5035186;28;20228;-50
2023/12/27 10:46:34;;;;;;;3.22;2.50;;;14.40;35.90;;;;;;5035124;28;20610;-49
2023/12/27 10:49:03;;;;;;;1.42;0.80;;;14.70;35.00;;;;;;5035444;28;20185;-47
2023/12/27 10:51:30;;;;;;;3.00;2.20;;;15.00;34.30;;;;;;5035214;28;20216;-45
2023/12/27 10:54:00;;;;;;;1.88;1.48;;;15.10;33.20;;;;;;5035218;28;20265;-49
2023/12/27 10:56:26;;;;;;;1.65;1.55;;;15.00;33.80;;;;;;5035041;28;20276;-46
2023/12/27 10:58:52;;;;;;;1.45;0.80;;;14.90;33.10;;;;;;5034777;28;20535;-52
2023/12/27 11:01:19;;;;;;;1.27;1.10;;;14.80;34.00;;;;;;5035145;28;20178;-50
2023/12/27 11:03:49;;;;;;;3.38;1.00;;;14.70;34.00;;;;;;5034925;28;20198;-46
2023/12/27 11:06:19;;;;;;;1.10;0.60;;;14.60;34.60;;;;;;5034877;28;20264;-51
2023/12/27 11:08:50;;;;;;;1.95;1.33;;;14.50;34.50;;;;;;5034713;28;20663;-45
2023/12/27 11:11:19;;;;;;;3.53;0.75;;;14.40;34.40;;;;;;5034549;28;20206;-48
2023/12/27 11:13:48;;;;;;;1.48;1.10;;;14.40;34.70;;;;;;5034911;28;20189;-50
2023/12/27 11:16:17;;;;;;;1.52;0.80;;;14.50;35.10;;;;;;5034631;28;20189;-45
2023/12/27 11:18:45;;;;;;;2.85;1.75;;;14.50;35.50;;;;;;5034639;28;20597;-49
2023/12/27 11:21:11;;;;;;;0.95;0.50;;;14.50;35.30;;;;;;5034585;28;20194;-50
2023/12/27 11:23:37;;;;;;;1.97;1.77;;;14.50;35.60;;;;;;5034534;28;20174;-46
2023/12/27 11:26:05;;;;;;;25.37;1.50;;;14.60;35.10;;;;;;5034286;28;20457;-44
2023/12/27 11:28:38;;;;;;;1.48;0.93;;;14.60;35.50;;;;;;5034359;28;20606;-48
2023/12/27 11:31:04;;;;;;;1.00;0.50;;;14.60;34.40;;;;;;5034411;28;20245;-45
2023/12/27 11:33:30;;;;;;;2.67;1.27;;;14.80;35.40;;;;;;5034524;28;20220;-46
2023/12/27 11:35:56;;;;;;;1.60;0.73;;;15.20;34.70;;;;;;5034312;28;20606;-50
2023/12/27 11:38:26;;;;;;;4.13;1.75;;;15.60;33.30;;;;;;5034197;28;20170;-47
2023/12/27 11:40:55;;;;;;;2.17;1.20;;;15.80;34.00;;;;;;5034188;28;20670;-45
2023/12/27 11:43:23;;;;;;;2.28;1.13;;;15.80;32.20;;;;;;5034259;28;20181;-48
2023/12/27 11:46:07;;;;;;;1.40;1.05;;;15.80;32.00;;;;;;5034264;28;20202;-49
2023/12/27 11:48:36;;;;;;;1.10;0.90;;;15.60;31.90;;;;;;5033975;28;20177;-46
2023/12/27 11:51:22;;;;;;;2.00;1.05;;;15.50;33.10;;;;;;5033920;28;20280;-49
2023/12/27 11:53:48;;;;;;;1.30;1.00;;;15.50;32.60;;;;;;5033617;28;20178;-48
2023/12/27 11:56:15;;;;;;;1.10;0.70;;;15.50;33.30;;;;;;5033981;28;20194;-47
2023/12/27 11:58:41;;;;;;;0.95;0.60;;;15.40;32.80;;;;;;5033971;28;20450;-52
2023/12/27 12:01:27;;;;;;;2.60;1.15;;;15.30;31.70;;;;;;5033780;28;20260;-46
2023/12/27 12:04:10;;;;;;;1.60;1.50;;;15.10;32.40;;;;;;5034019;28;20235;-48
2023/12/27 12:07:02;;;;;;;2.30;1.57;;;15.00;32.20;;;;;;5033882;28;20202;-46
2023/12/27 12:09:35;;;;;;;1.02;0.93;;;14.80;33.50;;;;;;5017517;28;20818;-50
2023/12/27 12:12:20;;;;;;;1.45;0.73;;;14.70;33.20;;;;;;5033784;28;20220;-51
2023/12/27 12:14:46;;;;;;;2.53;0.98;;;14.80;33.50;;;;;;5033579;28;20544;-47
2023/12/27 12:17:15;;;;;;;1.00;0.55;;;14.70;33.20;;;;;;5033616;28;20583;-49
2023/12/27 12:19:41;;;;;;;1.63;0.82;;;14.70;32.70;;;;;;5033390;28;20170;-46
2023/12/27 12:22:07;;;;;;;1.10;0.90;;;14.60;33.10;;;;;;5033306;28;20177;-46
2023/12/27 12:24:33;;;;;;;5.32;1.52;;;14.60;33.00;;;;;;5033616;28;20408;-52
2023/12/27 12:27:02;;;;;;;1.00;0.70;;;14.70;32.60;;;;;;5033398;28;20178;-47
2023/12/27 12:29:28;;;;;;;0.98;0.55;;;14.80;33.20;;;;;;5033320;28;20174;-47
2023/12/27 12:31:55;;;;;;;1.00;0.73;;;15.00;33.60;;;;;;5033263;28;20232;-52
2023/12/27 12:34:25;;;;;;;1.00;0.65;;;15.20;33.60;;;;;;5033224;28;20727;-44
2023/12/27 12:36:52;;;;;;;1.10;0.68;;;15.40;33.00;;;;;;5033421;28;20202;-49
2023/12/27 12:39:21;;;;;;;1.10;0.50;;;15.70;33.90;;;;;;5033863;28;20177;-52
2023/12/27 12:41:48;;;;;;;1.13;0.80;;;15.90;31.80;;;;;;5033614;28;20417;-46
2023/12/27 12:44:14;;;;;;;1.20;1.08;;;16.00;32.00;;;;;;5033835;28;20257;-45
2023/12/27 12:46:40;;;;;;;1.58;1.35;;;16.10;30.40;;;;;;5033907;28;20233;-49
2023/12/27 12:49:07;;;;;;;2.20;1.45;;;16.10;30.80;;;;;;5033361;28;20178;-47